sensor_id;sensor_type;location;lat;lon;timestamp;P1;durP1;ratioP1;P2;durP2;ratioP2
27489;SDS011;14925;51.026;13.752;2023-09-19T00:00:41;13.52;;;6.20;;
27489;SDS011;14925;51.026;13.752;2023-09-19T00:03:08;12.77;;;5.55;;
27489;SDS011;14925;51.026;13.752;2023-09-19T00:05:34;11.88;;;5.90;;
27489;SDS011;14925;51.026;13.752;2023-09-19T00:08:00;8.48;;;5.57;;
27489;SDS011;14925;51.026;13.752;2023-09-19T00:10:28;11.45;;;5.47;;
27489;SDS011;14925;51.026;13.752;2023-09-19T00:12:59;8.63;;;5.20;;
27489;SDS011;14925;51.026;13.752;2023-09-19T00:15:25;9.18;;;5.45;;
27489;SDS011;14925;51.026;13.752;2023-09-19T00:17:54;13.30;;;5.47;;
27489;SDS011;14925;51.026;13.752;2023-09-19T00:20:20;10.30;;;5.60;;
27489;SDS011;14925;51.026;13.752;2023-09-19T00:22:48;10.75;;;5.55;;
27489;SDS011;14925;51.026;13.752;2023-09-19T00:25:22;9.93;;;5.75;;
27489;SDS011;14925;51.026;13.752;2023-09-19T00:27:47;11.00;;;6.55;;
27489;SDS011;14925;51.026;13.752;2023-09-19T00:30:14;10.68;;;6.45;;
27489;SDS011;14925;51.026;13.752;2023-09-19T00:32:47;11.88;;;6.40;;
27489;SDS011;14925;51.026;13.752;2023-09-19T00:35:16;9.68;;;6.28;;
27489;SDS011;14925;51.026;13.752;2023-09-19T00:37:41;15.57;;;6.50;;
27489;SDS011;14925;51.026;13.752;2023-09-19T00:40:07;13.35;;;6.35;;
27489;SDS011;14925;51.026;13.752;2023-09-19T00:42:37;10.95;;;6.22;;
27489;SDS011;14925;51.026;13.752;2023-09-19T00:45:04;10.55;;;5.55;;
27489;SDS011;14925;51.026;13.752;2023-09-19T00:47:31;12.77;;;6.68;;
27489;SDS011;14925;51.026;13.752;2023-09-19T00:49:56;20.63;;;8.07;;
27489;SDS011;14925;51.026;13.752;2023-09-19T00:52:22;11.40;;;6.32;;
27489;SDS011;14925;51.026;13.752;2023-09-19T00:54:48;18.40;;;8.00;;
27489;SDS011;14925;51.026;13.752;2023-09-19T00:57:14;15.90;;;8.38;;
27489;SDS011;14925;51.026;13.752;2023-09-19T00:59:44;12.85;;;7.70;;
27489;SDS011;14925;51.026;13.752;2023-09-19T01:02:10;17.38;;;8.93;;
27489;SDS011;14925;51.026;13.752;2023-09-19T01:04:39;16.33;;;9.55;;
27489;SDS011;14925;51.026;13.752;2023-09-19T01:07:05;23.33;;;10.25;;
27489;SDS011;14925;51.026;13.752;2023-09-19T01:09:31;24.10;;;11.32;;
27489;SDS011;14925;51.026;13.752;2023-09-19T01:11:58;14.63;;;9.52;;
27489;SDS011;14925;51.026;13.752;2023-09-19T01:17:03;18.63;;;10.27;;
27489;SDS011;14925;51.026;13.752;2023-09-19T01:19:43;22.13;;;12.10;;
27489;SDS011;14925;51.026;13.752;2023-09-19T01:31:06;21.15;;;13.63;;
27489;SDS011;14925;51.026;13.752;2023-09-19T01:36:33;25.33;;;13.85;;
27489;SDS011;14925;51.026;13.752;2023-09-19T01:39:07;24.88;;;13.45;;
27489;SDS011;14925;51.026;13.752;2023-09-19T01:41:41;22.40;;;13.50;;
27489;SDS011;14925;51.026;13.752;2023-09-19T01:44:15;27.63;;;15.52;;
27489;SDS011;14925;51.026;13.752;2023-09-19T01:47:13;28.38;;;14.77;;
27489;SDS011;14925;51.026;13.752;2023-09-19T01:49:48;26.98;;;14.63;;
27489;SDS011;14925;51.026;13.752;2023-09-19T01:52:20;32.83;;;17.30;;
27489;SDS011;14925;51.026;13.752;2023-09-19T01:54:48;21.08;;;14.90;;
27489;SDS011;14925;51.026;13.752;2023-09-19T01:57:17;21.85;;;14.52;;
27489;SDS011;14925;51.026;13.752;2023-09-19T01:59:57;33.22;;;18.08;;
27489;SDS011;14925;51.026;13.752;2023-09-19T02:02:31;34.90;;;17.10;;
27489;SDS011;14925;51.026;13.752;2023-09-19T02:05:00;29.75;;;16.00;;
27489;SDS011;14925;51.026;13.752;2023-09-19T02:07:26;27.42;;;15.73;;
27489;SDS011;14925;51.026;13.752;2023-09-19T02:09:52;30.25;;;15.18;;
27489;SDS011;14925;51.026;13.752;2023-09-19T02:12:17;25.17;;;15.93;;
27489;SDS011;14925;51.026;13.752;2023-09-19T02:14:43;25.88;;;17.13;;
27489;SDS011;14925;51.026;13.752;2023-09-19T02:17:08;29.48;;;16.35;;
27489;SDS011;14925;51.026;13.752;2023-09-19T02:19:36;21.70;;;14.60;;
27489;SDS011;14925;51.026;13.752;2023-09-19T02:22:05;29.25;;;17.10;;
27489;SDS011;14925;51.026;13.752;2023-09-19T02:24:32;27.13;;;16.27;;
27489;SDS011;14925;51.026;13.752;2023-09-19T02:26:58;26.27;;;15.38;;
27489;SDS011;14925;51.026;13.752;2023-09-19T02:29:25;31.75;;;17.15;;
27489;SDS011;14925;51.026;13.752;2023-09-19T02:31:51;26.98;;;15.45;;
27489;SDS011;14925;51.026;13.752;2023-09-19T02:34:18;23.25;;;15.93;;
27489;SDS011;14925;51.026;13.752;2023-09-19T02:36:44;28.38;;;16.58;;
27489;SDS011;14925;51.026;13.752;2023-09-19T02:39:10;25.98;;;16.50;;
27489;SDS011;14925;51.026;13.752;2023-09-19T02:41:36;24.83;;;15.93;;
27489;SDS011;14925;51.026;13.752;2023-09-19T02:44:02;27.17;;;15.23;;
27489;SDS011;14925;51.026;13.752;2023-09-19T02:46:27;26.50;;;16.60;;
27489;SDS011;14925;51.026;13.752;2023-09-19T02:48:53;32.90;;;17.95;;
27489;SDS011;14925;51.026;13.752;2023-09-19T02:51:19;19.45;;;14.43;;
27489;SDS011;14925;51.026;13.752;2023-09-19T02:53:45;26.45;;;15.63;;
27489;SDS011;14925;51.026;13.752;2023-09-19T02:56:12;25.73;;;16.15;;
27489;SDS011;14925;51.026;13.752;2023-09-19T02:58:38;22.65;;;14.90;;
27489;SDS011;14925;51.026;13.752;2023-09-19T03:01:10;27.88;;;16.42;;
27489;SDS011;14925;51.026;13.752;2023-09-19T03:06:07;21.80;;;13.63;;
27489;SDS011;14925;51.026;13.752;2023-09-19T03:08:34;23.77;;;14.75;;
27489;SDS011;14925;51.026;13.752;2023-09-19T03:11:03;33.45;;;17.52;;
27489;SDS011;14925;51.026;13.752;2023-09-19T03:13:28;23.05;;;14.57;;
27489;SDS011;14925;51.026;13.752;2023-09-19T03:15:56;21.17;;;14.65;;
27489;SDS011;14925;51.026;13.752;2023-09-19T03:18:23;19.15;;;12.77;;
27489;SDS011;14925;51.026;13.752;2023-09-19T03:20:54;17.13;;;11.40;;
27489;SDS011;14925;51.026;13.752;2023-09-19T03:23:25;24.05;;;14.48;;
27489;SDS011;14925;51.026;13.752;2023-09-19T03:25:51;19.17;;;13.25;;
27489;SDS011;14925;51.026;13.752;2023-09-19T03:28:17;24.48;;;14.13;;
27489;SDS011;14925;51.026;13.752;2023-09-19T03:30:43;20.52;;;12.85;;
27489;SDS011;14925;51.026;13.752;2023-09-19T03:33:09;20.48;;;13.15;;
27489;SDS011;14925;51.026;13.752;2023-09-19T03:35:37;16.58;;;12.30;;
27489;SDS011;14925;51.026;13.752;2023-09-19T03:38:03;20.80;;;12.85;;
27489;SDS011;14925;51.026;13.752;2023-09-19T03:40:29;17.60;;;11.77;;
27489;SDS011;14925;51.026;13.752;2023-09-19T03:42:54;17.77;;;12.98;;
27489;SDS011;14925;51.026;13.752;2023-09-19T03:45:20;19.80;;;11.50;;
27489;SDS011;14925;51.026;13.752;2023-09-19T03:47:45;18.08;;;10.85;;
27489;SDS011;14925;51.026;13.752;2023-09-19T03:50:13;19.67;;;10.90;;
27489;SDS011;14925;51.026;13.752;2023-09-19T03:52:45;18.10;;;10.75;;
27489;SDS011;14925;51.026;13.752;2023-09-19T03:55:10;14.70;;;9.70;;
27489;SDS011;14925;51.026;13.752;2023-09-19T03:57:36;16.63;;;10.20;;
27489;SDS011;14925;51.026;13.752;2023-09-19T04:00:02;13.45;;;8.00;;
27489;SDS011;14925;51.026;13.752;2023-09-19T04:02:30;13.88;;;7.60;;
27489;SDS011;14925;51.026;13.752;2023-09-19T04:04:58;11.90;;;7.35;;
27489;SDS011;14925;51.026;13.752;2023-09-19T04:07:23;9.63;;;6.00;;
27489;SDS011;14925;51.026;13.752;2023-09-19T04:09:51;4.43;;;3.25;;
27489;SDS011;14925;51.026;13.752;2023-09-19T04:12:18;9.30;;;3.92;;
27489;SDS011;14925;51.026;13.752;2023-09-19T04:14:44;4.38;;;2.53;;
27489;SDS011;14925;51.026;13.752;2023-09-19T04:17:10;4.53;;;2.17;;
27489;SDS011;14925;51.026;13.752;2023-09-19T04:19:35;6.78;;;2.10;;
27489;SDS011;14925;51.026;13.752;2023-09-19T04:22:01;3.67;;;2.00;;
27489;SDS011;14925;51.026;13.752;2023-09-19T04:24:27;4.90;;;2.53;;
27489;SDS011;14925;51.026;13.752;2023-09-19T04:26:52;4.68;;;2.10;;
27489;SDS011;14925;51.026;13.752;2023-09-19T04:29:17;4.47;;;2.20;;
27489;SDS011;14925;51.026;13.752;2023-09-19T04:31:44;5.72;;;2.10;;
27489;SDS011;14925;51.026;13.752;2023-09-19T04:34:10;3.42;;;1.80;;
27489;SDS011;14925;51.026;13.752;2023-09-19T04:36:42;3.85;;;2.00;;
27489;SDS011;14925;51.026;13.752;2023-09-19T04:39:08;4.53;;;2.00;;
27489;SDS011;14925;51.026;13.752;2023-09-19T04:41:35;4.25;;;1.90;;
27489;SDS011;14925;51.026;13.752;2023-09-19T04:44:04;2.97;;;1.70;;
27489;SDS011;14925;51.026;13.752;2023-09-19T04:46:30;3.72;;;1.55;;
27489;SDS011;14925;51.026;13.752;2023-09-19T04:48:55;4.57;;;1.85;;
27489;SDS011;14925;51.026;13.752;2023-09-19T04:51:24;3.78;;;1.73;;
27489;SDS011;14925;51.026;13.752;2023-09-19T04:53:50;4.28;;;1.63;;
27489;SDS011;14925;51.026;13.752;2023-09-19T04:56:16;2.90;;;1.73;;
27489;SDS011;14925;51.026;13.752;2023-09-19T04:58:41;4.72;;;1.83;;
27489;SDS011;14925;51.026;13.752;2023-09-19T05:01:06;2.70;;;1.65;;
27489;SDS011;14925;51.026;13.752;2023-09-19T05:03:36;3.10;;;1.70;;
27489;SDS011;14925;51.026;13.752;2023-09-19T05:06:02;3.05;;;1.60;;
27489;SDS011;14925;51.026;13.752;2023-09-19T05:08:27;3.95;;;1.70;;
27489;SDS011;14925;51.026;13.752;2023-09-19T05:10:53;4.35;;;1.60;;
27489;SDS011;14925;51.026;13.752;2023-09-19T05:13:18;4.07;;;1.80;;
27489;SDS011;14925;51.026;13.752;2023-09-19T05:15:43;5.50;;;1.90;;
27489;SDS011;14925;51.026;13.752;2023-09-19T05:18:09;6.47;;;1.67;;
27489;SDS011;14925;51.026;13.752;2023-09-19T05:20:35;4.47;;;1.73;;
27489;SDS011;14925;51.026;13.752;2023-09-19T05:23:03;2.67;;;1.70;;
27489;SDS011;14925;51.026;13.752;2023-09-19T05:25:33;4.43;;;1.80;;
27489;SDS011;14925;51.026;13.752;2023-09-19T05:28:02;4.47;;;1.80;;
27489;SDS011;14925;51.026;13.752;2023-09-19T05:30:30;3.58;;;1.55;;
27489;SDS011;14925;51.026;13.752;2023-09-19T05:32:55;4.45;;;1.92;;
27489;SDS011;14925;51.026;13.752;2023-09-19T05:35:22;2.58;;;1.70;;
27489;SDS011;14925;51.026;13.752;2023-09-19T05:37:48;2.88;;;1.75;;
27489;SDS011;14925;51.026;13.752;2023-09-19T05:40:16;3.88;;;1.60;;
27489;SDS011;14925;51.026;13.752;2023-09-19T05:42:42;4.47;;;1.85;;
27489;SDS011;14925;51.026;13.752;2023-09-19T05:45:09;4.85;;;1.92;;
27489;SDS011;14925;51.026;13.752;2023-09-19T05:47:37;2.63;;;1.70;;
27489;SDS011;14925;51.026;13.752;2023-09-19T05:50:03;5.63;;;1.58;;
27489;SDS011;14925;51.026;13.752;2023-09-19T05:52:30;3.15;;;1.52;;
27489;SDS011;14925;51.026;13.752;2023-09-19T05:54:55;3.90;;;1.40;;
27489;SDS011;14925;51.026;13.752;2023-09-19T05:57:21;3.65;;;1.33;;
27489;SDS011;14925;51.026;13.752;2023-09-19T05:59:47;4.35;;;1.70;;
27489;SDS011;14925;51.026;13.752;2023-09-19T06:02:15;4.13;;;1.60;;
27489;SDS011;14925;51.026;13.752;2023-09-19T06:04:42;5.03;;;1.90;;
27489;SDS011;14925;51.026;13.752;2023-09-19T06:07:07;2.70;;;1.80;;
27489;SDS011;14925;51.026;13.752;2023-09-19T06:09:33;4.85;;;1.48;;
27489;SDS011;14925;51.026;13.752;2023-09-19T06:12:01;2.85;;;1.25;;
27489;SDS011;14925;51.026;13.752;2023-09-19T06:14:28;4.53;;;1.80;;
27489;SDS011;14925;51.026;13.752;2023-09-19T06:16:54;1.50;;;1.15;;
27489;SDS011;14925;51.026;13.752;2023-09-19T06:19:19;4.78;;;1.67;;
27489;SDS011;14925;51.026;13.752;2023-09-19T06:21:48;5.15;;;1.50;;
27489;SDS011;14925;51.026;13.752;2023-09-19T06:27:38;5.35;;;1.50;;
27489;SDS011;14925;51.026;13.752;2023-09-19T06:30:09;4.45;;;1.58;;
27489;SDS011;14925;51.026;13.752;2023-09-19T06:32:36;3.95;;;1.80;;
27489;SDS011;14925;51.026;13.752;2023-09-19T06:35:02;5.50;;;1.38;;
27489;SDS011;14925;51.026;13.752;2023-09-19T06:37:28;4.95;;;1.85;;
27489;SDS011;14925;51.026;13.752;2023-09-19T06:39:53;2.88;;;1.50;;
27489;SDS011;14925;51.026;13.752;2023-09-19T06:42:19;3.03;;;1.70;;
27489;SDS011;14925;51.026;13.752;2023-09-19T06:44:44;3.97;;;1.73;;
27489;SDS011;14925;51.026;13.752;2023-09-19T06:47:10;3.13;;;1.38;;
27489;SDS011;14925;51.026;13.752;2023-09-19T06:49:35;3.97;;;1.52;;
27489;SDS011;14925;51.026;13.752;2023-09-19T06:52:02;3.03;;;1.60;;
27489;SDS011;14925;51.026;13.752;2023-09-19T06:54:28;6.22;;;1.58;;
27489;SDS011;14925;51.026;13.752;2023-09-19T06:56:56;4.78;;;1.52;;
27489;SDS011;14925;51.026;13.752;2023-09-19T06:59:23;7.03;;;1.35;;
27489;SDS011;14925;51.026;13.752;2023-09-19T07:01:49;2.72;;;1.15;;
27489;SDS011;14925;51.026;13.752;2023-09-19T07:04:15;2.88;;;1.27;;
27489;SDS011;14925;51.026;13.752;2023-09-19T07:06:42;3.10;;;1.20;;
27489;SDS011;14925;51.026;13.752;2023-09-19T07:09:07;3.47;;;1.20;;
27489;SDS011;14925;51.026;13.752;2023-09-19T07:11:33;3.22;;;1.40;;
27489;SDS011;14925;51.026;13.752;2023-09-19T07:13:59;5.65;;;1.30;;
27489;SDS011;14925;51.026;13.752;2023-09-19T07:16:24;3.38;;;1.10;;
27489;SDS011;14925;51.026;13.752;2023-09-19T07:18:54;2.08;;;1.10;;
27489;SDS011;14925;51.026;13.752;2023-09-19T07:21:21;3.17;;;1.48;;
27489;SDS011;14925;51.026;13.752;2023-09-19T07:23:47;2.30;;;1.10;;
27489;SDS011;14925;51.026;13.752;2023-09-19T07:26:16;2.55;;;1.08;;
27489;SDS011;14925;51.026;13.752;2023-09-19T07:28:41;2.50;;;1.00;;
27489;SDS011;14925;51.026;13.752;2023-09-19T07:31:10;2.88;;;1.25;;
27489;SDS011;14925;51.026;13.752;2023-09-19T07:33:39;3.08;;;1.30;;
27489;SDS011;14925;51.026;13.752;2023-09-19T07:36:05;2.17;;;1.13;;
27489;SDS011;14925;51.026;13.752;2023-09-19T07:38:31;3.05;;;1.20;;
27489;SDS011;14925;51.026;13.752;2023-09-19T07:41:00;3.25;;;1.10;;
27489;SDS011;14925;51.026;13.752;2023-09-19T07:43:27;4.63;;;1.20;;
27489;SDS011;14925;51.026;13.752;2023-09-19T07:45:56;2.72;;;1.15;;
27489;SDS011;14925;51.026;13.752;2023-09-19T07:48:22;4.65;;;1.13;;
27489;SDS011;14925;51.026;13.752;2023-09-19T07:50:50;3.28;;;1.20;;
27489;SDS011;14925;51.026;13.752;2023-09-19T07:53:16;3.33;;;1.08;;
27489;SDS011;14925;51.026;13.752;2023-09-19T07:55:42;2.55;;;1.20;;
27489;SDS011;14925;51.026;13.752;2023-09-19T07:58:08;2.60;;;0.88;;
27489;SDS011;14925;51.026;13.752;2023-09-19T08:00:34;1.92;;;0.93;;
27489;SDS011;14925;51.026;13.752;2023-09-19T08:03:00;1.88;;;1.10;;
27489;SDS011;14925;51.026;13.752;2023-09-19T08:05:26;2.80;;;1.00;;
27489;SDS011;14925;51.026;13.752;2023-09-19T08:07:51;2.03;;;1.00;;
27489;SDS011;14925;51.026;13.752;2023-09-19T08:10:17;2.42;;;1.08;;
27489;SDS011;14925;51.026;13.752;2023-09-19T08:12:44;1.33;;;1.00;;
27489;SDS011;14925;51.026;13.752;2023-09-19T08:15:14;2.17;;;0.80;;
27489;SDS011;14925;51.026;13.752;2023-09-19T08:17:40;3.75;;;1.05;;
27489;SDS011;14925;51.026;13.752;2023-09-19T08:20:06;2.78;;;1.10;;
27489;SDS011;14925;51.026;13.752;2023-09-19T08:22:32;2.03;;;0.90;;
27489;SDS011;14925;51.026;13.752;2023-09-19T08:24:58;3.92;;;1.00;;
27489;SDS011;14925;51.026;13.752;2023-09-19T08:27:24;2.85;;;1.00;;
27489;SDS011;14925;51.026;13.752;2023-09-19T08:29:55;3.78;;;1.05;;
27489;SDS011;14925;51.026;13.752;2023-09-19T08:32:20;2.50;;;1.10;;
27489;SDS011;14925;51.026;13.752;2023-09-19T08:34:49;2.08;;;0.90;;
27489;SDS011;14925;51.026;13.752;2023-09-19T08:37:15;4.18;;;0.90;;
27489;SDS011;14925;51.026;13.752;2023-09-19T08:39:42;1.90;;;1.05;;
27489;SDS011;14925;51.026;13.752;2023-09-19T08:42:08;2.45;;;1.10;;
27489;SDS011;14925;51.026;13.752;2023-09-19T08:44:37;1.52;;;1.05;;
27489;SDS011;14925;51.026;13.752;2023-09-19T08:47:14;3.42;;;1.38;;
27489;SDS011;14925;51.026;13.752;2023-09-19T08:52:32;3.58;;;1.13;;
27489;SDS011;14925;51.026;13.752;2023-09-19T08:55:02;2.22;;;1.15;;
27489;SDS011;14925;51.026;13.752;2023-09-19T08:57:35;2.90;;;1.30;;
27489;SDS011;14925;51.026;13.752;2023-09-19T09:00:04;3.40;;;1.30;;
27489;SDS011;14925;51.026;13.752;2023-09-19T09:02:37;4.07;;;1.27;;
27489;SDS011;14925;51.026;13.752;2023-09-19T09:05:09;3.03;;;1.20;;
27489;SDS011;14925;51.026;13.752;2023-09-19T09:07:41;1.63;;;1.00;;
27489;SDS011;14925;51.026;13.752;2023-09-19T09:10:07;2.47;;;1.15;;
27489;SDS011;14925;51.026;13.752;2023-09-19T09:12:34;4.75;;;1.60;;
27489;SDS011;14925;51.026;13.752;2023-09-19T09:15:01;2.95;;;1.10;;
27489;SDS011;14925;51.026;13.752;2023-09-19T09:17:29;2.50;;;1.10;;
27489;SDS011;14925;51.026;13.752;2023-09-19T09:19:54;2.67;;;1.42;;
27489;SDS011;14925;51.026;13.752;2023-09-19T09:22:20;1.85;;;0.98;;
27489;SDS011;14925;51.026;13.752;2023-09-19T09:24:58;4.47;;;1.27;;
27489;SDS011;14925;51.026;13.752;2023-09-19T09:27:26;2.92;;;1.20;;
27489;SDS011;14925;51.026;13.752;2023-09-19T09:29:52;4.50;;;1.20;;
27489;SDS011;14925;51.026;13.752;2023-09-19T09:32:23;2.72;;;1.10;;
27489;SDS011;14925;51.026;13.752;2023-09-19T09:34:54;2.67;;;1.10;;
27489;SDS011;14925;51.026;13.752;2023-09-19T09:37:21;2.58;;;1.20;;
27489;SDS011;14925;51.026;13.752;2023-09-19T09:39:57;2.55;;;1.20;;
27489;SDS011;14925;51.026;13.752;2023-09-19T09:42:41;2.38;;;1.15;;
27489;SDS011;14925;51.026;13.752;2023-09-19T09:50:30;3.33;;;1.20;;
27489;SDS011;14925;51.026;13.752;2023-09-19T09:53:03;3.90;;;1.35;;
27489;SDS011;14925;51.026;13.752;2023-09-19T09:58:35;3.55;;;1.30;;
27489;SDS011;14925;51.026;13.752;2023-09-19T10:01:02;2.90;;;1.13;;
27489;SDS011;14925;51.026;13.752;2023-09-19T10:03:37;3.03;;;1.10;;
27489;SDS011;14925;51.026;13.752;2023-09-19T10:06:13;2.08;;;1.05;;
27489;SDS011;14925;51.026;13.752;2023-09-19T10:09:06;2.85;;;1.02;;
27489;SDS011;14925;51.026;13.752;2023-09-19T10:11:43;4.05;;;1.00;;
27489;SDS011;14925;51.026;13.752;2023-09-19T10:14:14;4.22;;;1.23;;
27489;SDS011;14925;51.026;13.752;2023-09-19T10:16:45;3.05;;;1.33;;
27489;SDS011;14925;51.026;13.752;2023-09-19T10:19:14;2.15;;;1.00;;
27489;SDS011;14925;51.026;13.752;2023-09-19T10:21:51;3.35;;;0.93;;
27489;SDS011;14925;51.026;13.752;2023-09-19T10:24:20;4.22;;;1.23;;
27489;SDS011;14925;51.026;13.752;2023-09-19T10:26:47;2.08;;;1.10;;
27489;SDS011;14925;51.026;13.752;2023-09-19T10:29:15;1.60;;;0.90;;
27489;SDS011;14925;51.026;13.752;2023-09-19T10:31:42;3.17;;;1.05;;
27489;SDS011;14925;51.026;13.752;2023-09-19T10:34:14;1.92;;;0.85;;
27489;SDS011;14925;51.026;13.752;2023-09-19T10:36:39;3.05;;;0.90;;
27489;SDS011;14925;51.026;13.752;2023-09-19T10:39:09;4.00;;;0.80;;
27489;SDS011;14925;51.026;13.752;2023-09-19T10:41:37;3.28;;;1.08;;
27489;SDS011;14925;51.026;13.752;2023-09-19T10:44:03;5.25;;;1.13;;
27489;SDS011;14925;51.026;13.752;2023-09-19T10:46:30;4.47;;;1.40;;
27489;SDS011;14925;51.026;13.752;2023-09-19T10:48:58;5.40;;;1.10;;
27489;SDS011;14925;51.026;13.752;2023-09-19T10:51:25;1.77;;;0.90;;
27489;SDS011;14925;51.026;13.752;2023-09-19T10:53:59;2.97;;;1.08;;
27489;SDS011;14925;51.026;13.752;2023-09-19T10:56:30;1.45;;;1.00;;
27489;SDS011;14925;51.026;13.752;2023-09-19T10:59:16;2.17;;;1.20;;
27489;SDS011;14925;51.026;13.752;2023-09-19T11:04:34;1.90;;;1.10;;
27489;SDS011;14925;51.026;13.752;2023-09-19T11:09:46;2.30;;;1.27;;
27489;SDS011;14925;51.026;13.752;2023-09-19T11:15:00;3.17;;;1.40;;
27489;SDS011;14925;51.026;13.752;2023-09-19T11:17:40;2.38;;;1.15;;
27489;SDS011;14925;51.026;13.752;2023-09-19T11:30:30;2.03;;;1.30;;
27489;SDS011;14925;51.026;13.752;2023-09-19T11:43:49;1.80;;;1.50;;
27489;SDS011;14925;51.026;13.752;2023-09-19T11:46:16;3.08;;;1.48;;
27489;SDS011;14925;51.026;13.752;2023-09-19T11:48:47;6.00;;;1.45;;
27489;SDS011;14925;51.026;13.752;2023-09-19T11:51:14;3.00;;;1.70;;
27489;SDS011;14925;51.026;13.752;2023-09-19T11:53:45;4.75;;;1.70;;
27489;SDS011;14925;51.026;13.752;2023-09-19T11:56:13;3.90;;;1.70;;
27489;SDS011;14925;51.026;13.752;2023-09-19T11:58:42;2.30;;;1.42;;
27489;SDS011;14925;51.026;13.752;2023-09-19T12:01:08;3.00;;;1.70;;
27489;SDS011;14925;51.026;13.752;2023-09-19T12:03:46;3.47;;;1.48;;
27489;SDS011;14925;51.026;13.752;2023-09-19T12:06:15;4.47;;;1.42;;
27489;SDS011;14925;51.026;13.752;2023-09-19T12:08:44;2.58;;;1.42;;
27489;SDS011;14925;51.026;13.752;2023-09-19T12:11:15;2.92;;;1.38;;
27489;SDS011;14925;51.026;13.752;2023-09-19T12:13:44;3.15;;;1.40;;
27489;SDS011;14925;51.026;13.752;2023-09-19T12:16:15;5.28;;;1.75;;
27489;SDS011;14925;51.026;13.752;2023-09-19T12:18:42;4.15;;;1.65;;
27489;SDS011;14925;51.026;13.752;2023-09-19T12:21:21;3.22;;;1.48;;
27489;SDS011;14925;51.026;13.752;2023-09-19T12:24:06;2.67;;;0.80;;
27489;SDS011;14925;51.026;13.752;2023-09-19T12:26:39;4.30;;;1.50;;
27489;SDS011;14925;51.026;13.752;2023-09-19T12:29:12;4.22;;;1.30;;
27489;SDS011;14925;51.026;13.752;2023-09-19T12:31:52;4.70;;;1.55;;
27489;SDS011;14925;51.026;13.752;2023-09-19T12:34:27;3.60;;;1.30;;
27489;SDS011;14925;51.026;13.752;2023-09-19T12:39:44;2.38;;;1.50;;
27489;SDS011;14925;51.026;13.752;2023-09-19T12:42:21;4.28;;;1.17;;
27489;SDS011;14925;51.026;13.752;2023-09-19T12:44:48;1.92;;;1.15;;
27489;SDS011;14925;51.026;13.752;2023-09-19T12:47:25;3.90;;;1.27;;
27489;SDS011;14925;51.026;13.752;2023-09-19T12:52:44;3.10;;;1.42;;
27489;SDS011;14925;51.026;13.752;2023-09-19T12:55:25;3.05;;;1.42;;
27489;SDS011;14925;51.026;13.752;2023-09-19T13:00:21;3.20;;;1.55;;
27489;SDS011;14925;51.026;13.752;2023-09-19T13:06:14;4.60;;;1.23;;
27489;SDS011;14925;51.026;13.752;2023-09-19T13:08:35;5.82;;;1.50;;
27489;SDS011;14925;51.026;13.752;2023-09-19T13:11:14;3.03;;;1.45;;
27489;SDS011;14925;51.026;13.752;2023-09-19T13:14:20;3.45;;;1.48;;
27489;SDS011;14925;51.026;13.752;2023-09-19T13:17:04;4.68;;;1.45;;
27489;SDS011;14925;51.026;13.752;2023-09-19T13:19:43;2.25;;;1.17;;
27489;SDS011;14925;51.026;13.752;2023-09-19T13:25:16;3.05;;;1.45;;
27489;SDS011;14925;51.026;13.752;2023-09-19T13:27:48;2.28;;;1.40;;
27489;SDS011;14925;51.026;13.752;2023-09-19T13:30:19;4.35;;;1.40;;
27489;SDS011;14925;51.026;13.752;2023-09-19T13:32:45;3.75;;;1.40;;
27489;SDS011;14925;51.026;13.752;2023-09-19T13:35:12;3.58;;;1.40;;
27489;SDS011;14925;51.026;13.752;2023-09-19T13:37:39;2.38;;;1.20;;
27489;SDS011;14925;51.026;13.752;2023-09-19T13:42:33;3.25;;;1.50;;
27489;SDS011;14925;51.026;13.752;2023-09-19T13:44:59;4.28;;;1.27;;
27489;SDS011;14925;51.026;13.752;2023-09-19T13:47:25;3.85;;;1.27;;
27489;SDS011;14925;51.026;13.752;2023-09-19T13:49:51;3.00;;;1.60;;
27489;SDS011;14925;51.026;13.752;2023-09-19T13:52:23;2.17;;;1.40;;
27489;SDS011;14925;51.026;13.752;2023-09-19T13:54:52;5.00;;;1.42;;
27489;SDS011;14925;51.026;13.752;2023-09-19T13:57:22;3.03;;;1.63;;
27489;SDS011;14925;51.026;13.752;2023-09-19T13:59:51;3.75;;;1.35;;
27489;SDS011;14925;51.026;13.752;2023-09-19T14:02:18;2.20;;;1.40;;
27489;SDS011;14925;51.026;13.752;2023-09-19T14:04:44;2.33;;;1.42;;
27489;SDS011;14925;51.026;13.752;2023-09-19T14:07:16;3.42;;;1.52;;
27489;SDS011;14925;51.026;13.752;2023-09-19T14:09:42;3.58;;;1.50;;
27489;SDS011;14925;51.026;13.752;2023-09-19T14:12:11;3.05;;;1.80;;
27489;SDS011;14925;51.026;13.752;2023-09-19T14:14:37;3.38;;;1.92;;
27489;SDS011;14925;51.026;13.752;2023-09-19T14:17:03;3.80;;;1.80;;
27489;SDS011;14925;51.026;13.752;2023-09-19T14:19:29;3.40;;;1.90;;
27489;SDS011;14925;51.026;13.752;2023-09-19T14:21:55;2.13;;;1.50;;
27489;SDS011;14925;51.026;13.752;2023-09-19T14:24:24;2.85;;;1.48;;
27489;SDS011;14925;51.026;13.752;2023-09-19T14:26:49;2.80;;;1.50;;
27489;SDS011;14925;51.026;13.752;2023-09-19T14:29:16;3.75;;;1.42;;
27489;SDS011;14925;51.026;13.752;2023-09-19T14:31:42;3.03;;;1.58;;
27489;SDS011;14925;51.026;13.752;2023-09-19T14:34:08;3.33;;;1.67;;
27489;SDS011;14925;51.026;13.752;2023-09-19T14:36:37;3.42;;;1.65;;
27489;SDS011;14925;51.026;13.752;2023-09-19T14:39:05;5.80;;;1.67;;
27489;SDS011;14925;51.026;13.752;2023-09-19T14:41:31;3.78;;;1.85;;
27489;SDS011;14925;51.026;13.752;2023-09-19T14:44:01;2.47;;;1.75;;
27489;SDS011;14925;51.026;13.752;2023-09-19T14:46:30;3.78;;;1.80;;
27489;SDS011;14925;51.026;13.752;2023-09-19T14:48:56;5.57;;;1.60;;
27489;SDS011;14925;51.026;13.752;2023-09-19T14:51:25;2.67;;;1.77;;
27489;SDS011;14925;51.026;13.752;2023-09-19T14:53:50;6.82;;;2.10;;
27489;SDS011;14925;51.026;13.752;2023-09-19T14:56:15;2.83;;;1.73;;
27489;SDS011;14925;51.026;13.752;2023-09-19T14:58:43;4.22;;;2.13;;
27489;SDS011;14925;51.026;13.752;2023-09-19T15:01:12;3.33;;;1.80;;
27489;SDS011;14925;51.026;13.752;2023-09-19T15:03:39;4.07;;;1.88;;
27489;SDS011;14925;51.026;13.752;2023-09-19T15:06:08;3.78;;;2.00;;
27489;SDS011;14925;51.026;13.752;2023-09-19T15:08:39;3.25;;;2.10;;
27489;SDS011;14925;51.026;13.752;2023-09-19T15:11:08;2.78;;;1.70;;
27489;SDS011;14925;51.026;13.752;2023-09-19T15:13:35;4.65;;;1.92;;
27489;SDS011;14925;51.026;13.752;2023-09-19T15:16:02;3.25;;;1.73;;
27489;SDS011;14925;51.026;13.752;2023-09-19T15:18:28;2.90;;;1.80;;
27489;SDS011;14925;51.026;13.752;2023-09-19T15:21:00;5.10;;;1.90;;
27489;SDS011;14925;51.026;13.752;2023-09-19T15:23:25;3.50;;;1.95;;
27489;SDS011;14925;51.026;13.752;2023-09-19T15:25:51;4.40;;;1.63;;
27489;SDS011;14925;51.026;13.752;2023-09-19T15:28:18;4.40;;;2.00;;
27489;SDS011;14925;51.026;13.752;2023-09-19T15:30:43;3.45;;;1.60;;
27489;SDS011;14925;51.026;13.752;2023-09-19T15:33:09;3.65;;;1.83;;
27489;SDS011;14925;51.026;13.752;2023-09-19T15:35:34;2.92;;;1.75;;
27489;SDS011;14925;51.026;13.752;2023-09-19T15:38:02;4.22;;;1.83;;
27489;SDS011;14925;51.026;13.752;2023-09-19T15:40:27;3.70;;;1.88;;
27489;SDS011;14925;51.026;13.752;2023-09-19T15:42:54;6.32;;;1.67;;
27489;SDS011;14925;51.026;13.752;2023-09-19T15:45:21;3.78;;;1.73;;
27489;SDS011;14925;51.026;13.752;2023-09-19T15:47:46;3.03;;;1.73;;
27489;SDS011;14925;51.026;13.752;2023-09-19T15:50:11;3.75;;;1.95;;
27489;SDS011;14925;51.026;13.752;2023-09-19T15:52:40;4.45;;;1.70;;